sensor_id;sensor_type;location;lat;lon;timestamp;pressure;altitude;pressure_sealevel;temperature;humidity
54994;BME280;40891;47.242;8.648;2022-12-18T00:01:03;97275.06;;;0.03;100.00
54994;BME280;40891;47.242;8.648;2022-12-18T00:03:35;97267.22;;;0.01;100.00
54994;BME280;40891;47.242;8.648;2022-12-18T00:06:01;97261.09;;;0.08;100.00
54994;BME280;40891;47.242;8.648;2022-12-18T00:08:27;97264.13;;;0.03;100.00
54994;BME280;40891;47.242;8.648;2022-12-18T00:10:52;97268.03;;;0.02;100.00
54994;BME280;40891;47.242;8.648;2022-12-18T00:13:17;97257.00;;;-0.02;100.00
54994;BME280;40891;47.242;8.648;2022-12-18T00:15:43;97264.78;;;-0.04;100.00
54994;BME280;40891;47.242;8.648;2022-12-18T00:18:09;97271.41;;;-0.05;100.00
54994;BME280;40891;47.242;8.648;2022-12-18T00:20:36;97285.84;;;-0.05;100.00
54994;BME280;40891;47.242;8.648;2022-12-18T00:23:02;97280.38;;;-0.05;100.00
54994;BME280;40891;47.242;8.648;2022-12-18T00:25:27;97293.63;;;-0.07;100.00
54994;BME280;40891;47.242;8.648;2022-12-18T00:27:53;97296.06;;;-0.02;100.00
54994;BME280;40891;47.242;8.648;2022-12-18T00:30:18;97305.56;;;0.05;100.00
54994;BME280;40891;47.242;8.648;2022-12-18T00:32:43;97308.16;;;-0.03;100.00
54994;BME280;40891;47.242;8.648;2022-12-18T00:35:09;97314.78;;;-0.04;100.00
54994;BME280;40891;47.242;8.648;2022-12-18T00:37:34;97319.53;;;-0.01;100.00
54994;BME280;40891;47.242;8.648;2022-12-18T00:40:00;97315.34;;;0.06;100.00
54994;BME280;40891;47.242;8.648;2022-12-18T00:42:25;97312.69;;;0.09;100.00
54994;BME280;40891;47.242;8.648;2022-12-18T00:45:09;97302.47;;;0.06;100.00
54994;BME280;40891;47.242;8.648;2022-12-18T00:47:34;97290.81;;;0.09;100.00
54994;BME280;40891;47.242;8.648;2022-12-18T00:50:00;97290.53;;;0.14;100.00
54994;BME280;40891;47.242;8.648;2022-12-18T00:52:25;97290.16;;;0.16;100.00
54994;BME280;40891;47.242;8.648;2022-12-18T00:54:50;97292.47;;;0.14;100.00
54994;BME280;40891;47.242;8.648;2022-12-18T00:57:16;97285.69;;;0.08;100.00
54994;BME280;40891;47.242;8.648;2022-12-18T00:59:41;97290.44;;;0.11;100.00
54994;BME280;40891;47.242;8.648;2022-12-18T01:02:06;97297.78;;;0.07;100.00
54994;BME280;40891;47.242;8.648;2022-12-18T01:04:32;97302.25;;;-0.05;100.00
54994;BME280;40891;47.242;8.648;2022-12-18T01:06:58;97303.13;;;-0.01;100.00
54994;BME280;40891;47.242;8.648;2022-12-18T01:09:23;97309.44;;;0.04;100.00
54994;BME280;40891;47.242;8.648;2022-12-18T01:11:49;97303.31;;;0.10;100.00
54994;BME280;40891;47.242;8.648;2022-12-18T01:14:14;97301.63;;;0.02;100.00
54994;BME280;40891;47.242;8.648;2022-12-18T01:16:40;97304.69;;;0.00;100.00
54994;BME280;40891;47.242;8.648;2022-12-18T01:19:05;97310.94;;;0.01;100.00
54994;BME280;40891;47.242;8.648;2022-12-18T01:21:30;97310.16;;;0.00;100.00
54994;BME280;40891;47.242;8.648;2022-12-18T01:23:56;97309.53;;;0.07;100.00
54994;BME280;40891;47.242;8.648;2022-12-18T01:26:23;97314.19;;;0.07;100.00
54994;BME280;40891;47.242;8.648;2022-12-18T01:28:48;97322.31;;;0.03;100.00
54994;BME280;40891;47.242;8.648;2022-12-18T01:31:23;97321.84;;;-0.03;100.00
54994;BME280;40891;47.242;8.648;2022-12-18T01:33:50;97323.06;;;0.00;100.00
54994;BME280;40891;47.242;8.648;2022-12-18T01:36:24;97325.41;;;0.02;100.00
54994;BME280;40891;47.242;8.648;2022-12-18T01:38:51;97330.94;;;0.05;100.00
54994;BME280;40891;47.242;8.648;2022-12-18T01:41:19;97333.31;;;0.07;100.00
54994;BME280;40891;47.242;8.648;2022-12-18T01:43:56;97345.41;;;0.06;100.00
54994;BME280;40891;47.242;8.648;2022-12-18T01:46:23;97331.25;;;0.00;100.00
54994;BME280;40891;47.242;8.648;2022-12-18T01:48:52;97333.66;;;0.05;100.00
54994;BME280;40891;47.242;8.648;2022-12-18T01:51:18;97338.78;;;0.07;100.00
54994;BME280;40891;47.242;8.648;2022-12-18T01:53:45;97332.28;;;0.15;100.00
54994;BME280;40891;47.242;8.648;2022-12-18T01:56:16;97329.94;;;0.13;100.00
54994;BME280;40891;47.242;8.648;2022-12-18T01:58:54;97340.78;;;0.10;100.00
54994;BME280;40891;47.242;8.648;2022-12-18T02:01:22;97349.06;;;0.13;100.00
54994;BME280;40891;47.242;8.648;2022-12-18T02:03:47;97350.59;;;0.11;100.00
54994;BME280;40891;47.242;8.648;2022-12-18T02:06:16;97358.88;;;0.14;100.00
54994;BME280;40891;47.242;8.648;2022-12-18T02:14:42;97351.81;;;0.13;100.00
54994;BME280;40891;47.242;8.648;2022-12-18T02:17:23;97345.53;;;0.13;100.00
54994;BME280;40891;47.242;8.648;2022-12-18T02:22:41;97338.94;;;0.14;100.00
54994;BME280;40891;47.242;8.648;2022-12-18T02:28:16;97347.03;;;0.10;100.00
54994;BME280;40891;47.242;8.648;2022-12-18T02:30:47;97347.56;;;0.16;100.00
54994;BME280;40891;47.242;8.648;2022-12-18T02:33:14;97349.31;;;0.05;100.00
54994;BME280;40891;47.242;8.648;2022-12-18T02:35:41;97359.50;;;0.08;100.00
54994;BME280;40891;47.242;8.648;2022-12-18T02:38:09;97359.16;;;0.09;100.00
54994;BME280;40891;47.242;8.648;2022-12-18T02:40:35;97350.94;;;0.09;100.00
54994;BME280;40891;47.242;8.648;2022-12-18T02:43:07;97358.41;;;0.12;100.00
54994;BME280;40891;47.242;8.648;2022-12-18T02:45:32;97353.31;;;0.11;100.00
54994;BME280;40891;47.242;8.648;2022-12-18T02:47:58;97345.13;;;0.11;100.00
54994;BME280;40891;47.242;8.648;2022-12-18T02:50:33;97346.25;;;0.10;100.00
54994;BME280;40891;47.242;8.648;2022-12-18T02:53:27;97354.78;;;0.05;100.00
54994;BME280;40891;47.242;8.648;2022-12-18T03:01:15;97348.72;;;-0.05;100.00
54994;BME280;40891;47.242;8.648;2022-12-18T03:03:47;97347.94;;;-0.05;100.00
54994;BME280;40891;47.242;8.648;2022-12-18T03:06:29;97352.94;;;-0.07;100.00
54994;BME280;40891;47.242;8.648;2022-12-18T03:09:02;97354.50;;;-0.10;100.00
54994;BME280;40891;47.242;8.648;2022-12-18T03:11:31;97341.53;;;-0.13;100.00
54994;BME280;40891;47.242;8.648;2022-12-18T03:14:18;97347.41;;;-0.11;100.00
54994;BME280;40891;47.242;8.648;2022-12-18T03:16:48;97347.78;;;-0.12;100.00
54994;BME280;40891;47.242;8.648;2022-12-18T03:19:16;97352.09;;;-0.11;100.00
54994;BME280;40891;47.242;8.648;2022-12-18T03:21:49;97358.22;;;-0.18;100.00
54994;BME280;40891;47.242;8.648;2022-12-18T03:24:17;97362.06;;;-0.19;100.00
54994;BME280;40891;47.242;8.648;2022-12-18T03:26:46;97371.88;;;-0.18;100.00
54994;BME280;40891;47.242;8.648;2022-12-18T03:29:16;97370.66;;;-0.20;100.00
54994;BME280;40891;47.242;8.648;2022-12-18T03:31:49;97372.94;;;-0.22;100.00
54994;BME280;40891;47.242;8.648;2022-12-18T03:34:21;97375.03;;;-0.16;100.00
54994;BME280;40891;47.242;8.648;2022-12-18T03:36:48;97371.50;;;-0.16;100.00
54994;BME280;40891;47.242;8.648;2022-12-18T03:39:13;97373.00;;;-0.19;100.00
54994;BME280;40891;47.242;8.648;2022-12-18T03:41:54;97382.81;;;-0.18;100.00
54994;BME280;40891;47.242;8.648;2022-12-18T03:44:29;97393.31;;;-0.20;100.00
54994;BME280;40891;47.242;8.648;2022-12-18T03:47:04;97382.38;;;-0.20;100.00
54994;BME280;40891;47.242;8.648;2022-12-18T03:49:40;97395.66;;;-0.18;100.00
54994;BME280;40891;47.242;8.648;2022-12-18T03:52:13;97386.97;;;-0.24;100.00
54994;BME280;40891;47.242;8.648;2022-12-18T03:54:42;97391.91;;;-0.29;100.00
54994;BME280;40891;47.242;8.648;2022-12-18T03:57:14;97396.59;;;-0.30;100.00
54994;BME280;40891;47.242;8.648;2022-12-18T03:59:43;97400.91;;;-0.29;100.00
54994;BME280;40891;47.242;8.648;2022-12-18T04:02:09;97403.38;;;-0.24;100.00
54994;BME280;40891;47.242;8.648;2022-12-18T04:04:37;97405.31;;;-0.24;100.00
54994;BME280;40891;47.242;8.648;2022-12-18T04:07:04;97405.03;;;-0.19;100.00
54994;BME280;40891;47.242;8.648;2022-12-18T04:09:32;97414.28;;;-0.24;100.00
54994;BME280;40891;47.242;8.648;2022-12-18T04:11:58;97410.50;;;-0.19;100.00
54994;BME280;40891;47.242;8.648;2022-12-18T04:14:24;97415.50;;;-0.21;100.00
54994;BME280;40891;47.242;8.648;2022-12-18T04:16:49;97411.84;;;-0.29;100.00
54994;BME280;40891;47.242;8.648;2022-12-18T04:19:14;97410.66;;;-0.28;100.00
54994;BME280;40891;47.242;8.648;2022-12-18T04:21:40;97414.63;;;-0.25;100.00
54994;BME280;40891;47.242;8.648;2022-12-18T04:24:05;97418.38;;;-0.33;100.00
54994;BME280;40891;47.242;8.648;2022-12-18T04:26:31;97417.91;;;-0.35;100.00
54994;BME280;40891;47.242;8.648;2022-12-18T04:28:56;97431.56;;;-0.35;100.00
54994;BME280;40891;47.242;8.648;2022-12-18T04:31:21;97425.25;;;-0.39;100.00
54994;BME280;40891;47.242;8.648;2022-12-18T04:33:47;97426.19;;;-0.32;100.00
54994;BME280;40891;47.242;8.648;2022-12-18T04:36:12;97435.47;;;-0.36;100.00
54994;BME280;40891;47.242;8.648;2022-12-18T04:38:37;97436.69;;;-0.34;100.00
54994;BME280;40891;47.242;8.648;2022-12-18T04:41:03;97434.31;;;-0.35;100.00
54994;BME280;40891;47.242;8.648;2022-12-18T04:43:28;97435.97;;;-0.31;100.00
54994;BME280;40891;47.242;8.648;2022-12-18T04:46:01;97434.63;;;-0.21;100.00
54994;BME280;40891;47.242;8.648;2022-12-18T04:48:27;97437.56;;;-0.30;100.00
54994;BME280;40891;47.242;8.648;2022-12-18T04:50:52;97440.66;;;-0.31;100.00
54994;BME280;40891;47.242;8.648;2022-12-18T04:53:18;97437.84;;;-0.35;100.00
54994;BME280;40891;47.242;8.648;2022-12-18T04:55:43;97443.56;;;-0.40;100.00
54994;BME280;40891;47.242;8.648;2022-12-18T04:58:08;97442.88;;;-0.37;100.00
54994;BME280;40891;47.242;8.648;2022-12-18T05:00:33;97447.63;;;-0.34;100.00
54994;BME280;40891;47.242;8.648;2022-12-18T05:03:01;97441.25;;;-0.38;100.00
54994;BME280;40891;47.242;8.648;2022-12-18T05:05:27;97460.38;;;-0.38;100.00
54994;BME280;40891;47.242;8.648;2022-12-18T05:07:52;97450.19;;;-0.41;100.00
54994;BME280;40891;47.242;8.648;2022-12-18T05:10:17;97444.16;;;-0.31;100.00
54994;BME280;40891;47.242;8.648;2022-12-18T05:12:43;97439.75;;;-0.20;100.00
54994;BME280;40891;47.242;8.648;2022-12-18T05:15:27;97439.63;;;-0.08;100.00
54994;BME280;40891;47.242;8.648;2022-12-18T05:17:53;97437.03;;;-0.01;100.00
54994;BME280;40891;47.242;8.648;2022-12-18T05:20:18;97440.41;;;-0.07;100.00
54994;BME280;40891;47.242;8.648;2022-12-18T05:22:44;97438.31;;;-0.14;100.00
54994;BME280;40891;47.242;8.648;2022-12-18T05:25:09;97438.53;;;-0.22;100.00
54994;BME280;40891;47.242;8.648;2022-12-18T05:27:35;97429.41;;;-0.11;100.00
54994;BME280;40891;47.242;8.648;2022-12-18T05:30:00;97435.72;;;-0.07;99.87
54994;BME280;40891;47.242;8.648;2022-12-18T05:32:25;97435.81;;;-0.03;99.59
54994;BME280;40891;47.242;8.648;2022-12-18T05:34:51;97436.63;;;-0.03;99.72
54994;BME280;40891;47.242;8.648;2022-12-18T05:37:16;97434.19;;;-0.23;100.00
54994;BME280;40891;47.242;8.648;2022-12-18T05:39:42;97433.69;;;-0.29;100.00
54994;BME280;40891;47.242;8.648;2022-12-18T05:42:07;97438.25;;;-0.33;100.00
54994;BME280;40891;47.242;8.648;2022-12-18T05:44:33;97441.63;;;-0.39;100.00
54994;BME280;40891;47.242;8.648;2022-12-18T05:46:59;97436.25;;;-0.36;100.00
54994;BME280;40891;47.242;8.648;2022-12-18T05:49:24;97441.84;;;-0.48;100.00
54994;BME280;40891;47.242;8.648;2022-12-18T05:51:49;97439.81;;;-0.51;100.00
54994;BME280;40891;47.242;8.648;2022-12-18T05:54:14;97436.16;;;-0.39;100.00
54994;BME280;40891;47.242;8.648;2022-12-18T05:56:40;97447.72;;;-0.46;100.00
54994;BME280;40891;47.242;8.648;2022-12-18T05:59:05;97454.97;;;-0.53;100.00
54994;BME280;40891;47.242;8.648;2022-12-18T06:01:30;97450.63;;;-0.54;100.00
54994;BME280;40891;47.242;8.648;2022-12-18T06:03:56;97442.00;;;-0.41;100.00
54994;BME280;40891;47.242;8.648;2022-12-18T06:06:26;97439.84;;;-0.32;100.00
54994;BME280;40891;47.242;8.648;2022-12-18T06:08:52;97447.19;;;-0.36;100.00
54994;BME280;40891;47.242;8.648;2022-12-18T06:11:22;97450.91;;;-0.44;100.00
54994;BME280;40891;47.242;8.648;2022-12-18T06:13:50;97448.16;;;-0.44;100.00
54994;BME280;40891;47.242;8.648;2022-12-18T06:16:16;97451.09;;;-0.52;100.00
54994;BME280;40891;47.242;8.648;2022-12-18T06:18:41;97452.44;;;-0.27;100.00
54994;BME280;40891;47.242;8.648;2022-12-18T06:21:06;97455.13;;;-0.12;98.71
54994;BME280;40891;47.242;8.648;2022-12-18T06:23:32;97460.75;;;-0.24;99.54
54994;BME280;40891;47.242;8.648;2022-12-18T06:25:57;97465.84;;;-0.38;100.00
54994;BME280;40891;47.242;8.648;2022-12-18T06:28:23;97470.38;;;-0.45;100.00
54994;BME280;40891;47.242;8.648;2022-12-18T06:30:48;97475.66;;;-0.52;100.00
54994;BME280;40891;47.242;8.648;2022-12-18T06:33:15;97473.09;;;-0.45;100.00
54994;BME280;40891;47.242;8.648;2022-12-18T06:35:41;97475.47;;;-0.44;100.00
54994;BME280;40891;47.242;8.648;2022-12-18T06:38:06;97487.53;;;-0.45;100.00
54994;BME280;40891;47.242;8.648;2022-12-18T06:40:32;97484.63;;;-0.36;100.00
54994;BME280;40891;47.242;8.648;2022-12-18T06:42:57;97482.69;;;-0.36;100.00
54994;BME280;40891;47.242;8.648;2022-12-18T06:45:23;97483.13;;;-0.34;100.00
54994;BME280;40891;47.242;8.648;2022-12-18T06:47:49;97480.41;;;-0.34;100.00
54994;BME280;40891;47.242;8.648;2022-12-18T06:50:14;97478.97;;;-0.28;100.00
54994;BME280;40891;47.242;8.648;2022-12-18T06:52:40;97485.94;;;-0.30;100.00
54994;BME280;40891;47.242;8.648;2022-12-18T06:55:06;97493.63;;;-0.36;100.00
54994;BME280;40891;47.242;8.648;2022-12-18T06:57:31;97494.50;;;-0.32;100.00
54994;BME280;40891;47.242;8.648;2022-12-18T06:59:57;97507.00;;;-0.31;100.00
54994;BME280;40891;47.242;8.648;2022-12-18T07:02:22;97509.91;;;-0.24;100.00
54994;BME280;40891;47.242;8.648;2022-12-18T07:04:47;97505.59;;;-0.25;100.00
54994;BME280;40891;47.242;8.648;2022-12-18T07:07:13;97518.19;;;-0.20;100.00
54994;BME280;40891;47.242;8.648;2022-12-18T07:09:38;97519.16;;;-0.13;100.00
54994;BME280;40891;47.242;8.648;2022-12-18T07:12:03;97518.34;;;-0.13;100.00
54994;BME280;40891;47.242;8.648;2022-12-18T07:14:30;97519.56;;;-0.11;100.00
54994;BME280;40891;47.242;8.648;2022-12-18T07:16:55;97526.19;;;-0.12;100.00
54994;BME280;40891;47.242;8.648;2022-12-18T07:19:23;97527.41;;;-0.09;100.00
54994;BME280;40891;47.242;8.648;2022-12-18T07:21:50;97529.44;;;-0.06;100.00
54994;BME280;40891;47.242;8.648;2022-12-18T07:24:15;97534.91;;;-0.06;100.00
54994;BME280;40891;47.242;8.648;2022-12-18T07:26:41;97544.25;;;-0.07;100.00
54994;BME280;40891;47.242;8.648;2022-12-18T07:29:06;97550.16;;;-0.05;100.00
54994;BME280;40891;47.242;8.648;2022-12-18T07:31:31;97551.41;;;-0.03;100.00
54994;BME280;40891;47.242;8.648;2022-12-18T07:33:57;97555.63;;;-0.05;100.00
54994;BME280;40891;47.242;8.648;2022-12-18T07:36:22;97554.56;;;-0.01;100.00
54994;BME280;40891;47.242;8.648;2022-12-18T07:38:48;97554.13;;;-0.03;100.00
54994;BME280;40891;47.242;8.648;2022-12-18T07:41:14;97556.56;;;0.03;100.00
54994;BME280;40891;47.242;8.648;2022-12-18T07:43:40;97549.69;;;0.09;100.00
54994;BME280;40891;47.242;8.648;2022-12-18T07:46:07;97556.66;;;0.06;100.00
54994;BME280;40891;47.242;8.648;2022-12-18T07:48:32;97559.94;;;0.12;100.00
54994;BME280;40891;47.242;8.648;2022-12-18T07:51:03;97561.94;;;0.15;100.00
54994;BME280;40891;47.242;8.648;2022-12-18T07:53:29;97555.66;;;0.30;100.00
54994;BME280;40891;47.242;8.648;2022-12-18T07:55:56;97546.16;;;0.43;95.43
54994;BME280;40891;47.242;8.648;2022-12-18T07:58:22;97553.56;;;0.23;94.88
54994;BME280;40891;47.242;8.648;2022-12-18T08:00:47;97557.91;;;0.09;96.95
54994;BME280;40891;47.242;8.648;2022-12-18T08:03:13;97562.03;;;0.18;96.33
54994;BME280;40891;47.242;8.648;2022-12-18T08:05:38;97565.34;;;-0.08;98.27
54994;BME280;40891;47.242;8.648;2022-12-18T08:08:03;97561.38;;;-0.10;97.67
54994;BME280;40891;47.242;8.648;2022-12-18T08:10:29;97566.19;;;-0.04;98.59
54994;BME280;40891;47.242;8.648;2022-12-18T08:12:54;97566.31;;;0.00;97.98
54994;BME280;40891;47.242;8.648;2022-12-18T08:15:19;97567.09;;;-0.15;98.41
54994;BME280;40891;47.242;8.648;2022-12-18T08:17:45;97570.06;;;-0.05;97.10
54994;BME280;40891;47.242;8.648;2022-12-18T08:20:10;97568.50;;;-0.06;97.87
54994;BME280;40891;47.242;8.648;2022-12-18T08:22:37;97578.53;;;0.06;97.46
54994;BME280;40891;47.242;8.648;2022-12-18T08:25:03;97581.16;;;0.03;97.84
54994;BME280;40891;47.242;8.648;2022-12-18T08:27:29;97579.47;;;0.29;96.48
54994;BME280;40891;47.242;8.648;2022-12-18T08:29:55;97586.94;;;0.32;96.75
54994;BME280;40891;47.242;8.648;2022-12-18T08:32:20;97592.16;;;0.37;97.68
54994;BME280;40891;47.242;8.648;2022-12-18T08:34:45;97588.41;;;0.45;95.76
54994;BME280;40891;47.242;8.648;2022-12-18T08:37:11;97584.28;;;0.36;95.05
54994;BME280;40891;47.242;8.648;2022-12-18T08:39:36;97584.91;;;0.29;96.26
54994;BME280;40891;47.242;8.648;2022-12-18T08:42:01;97591.78;;;0.39;96.42
54994;BME280;40891;47.242;8.648;2022-12-18T08:44:45;97585.09;;;0.36;94.30
54994;BME280;40891;47.242;8.648;2022-12-18T08:47:11;97587.75;;;0.33;95.71
54994;BME280;40891;47.242;8.648;2022-12-18T08:49:36;97596.97;;;0.44;94.89
54994;BME280;40891;47.242;8.648;2022-12-18T08:52:01;97589.22;;;0.46;95.17
54994;BME280;40891;47.242;8.648;2022-12-18T08:54:28;97589.72;;;0.51;94.34
54994;BME280;40891;47.242;8.648;2022-12-18T08:56:54;97591.88;;;0.42;94.61
54994;BME280;40891;47.242;8.648;2022-12-18T08:59:19;97593.09;;;0.45;93.64
54994;BME280;40891;47.242;8.648;2022-12-18T09:01:45;97582.75;;;0.54;94.65
54994;BME280;40891;47.242;8.648;2022-12-18T09:04:12;97577.22;;;0.69;93.59
54994;BME280;40891;47.242;8.648;2022-12-18T09:06:37;97563.47;;;0.85;93.68
54994;BME280;40891;47.242;8.648;2022-12-18T09:09:04;97565.34;;;1.00;91.68
54994;BME280;40891;47.242;8.648;2022-12-18T09:11:30;97563.25;;;0.75;92.61
54994;BME280;40891;47.242;8.648;2022-12-18T09:13:56;97562.31;;;0.67;92.52
54994;BME280;40891;47.242;8.648;2022-12-18T09:16:23;97560.88;;;0.73;93.82
54994;BME280;40891;47.242;8.648;2022-12-18T09:18:49;97556.47;;;0.88;91.62
54994;BME280;40891;47.242;8.648;2022-12-18T09:21:17;97559.56;;;0.86;91.10
54994;BME280;40891;47.242;8.648;2022-12-18T09:23:43;97564.25;;;0.86;91.96
54994;BME280;40891;47.242;8.648;2022-12-18T09:26:08;97561.75;;;0.77;91.09
54994;BME280;40891;47.242;8.648;2022-12-18T09:28:34;97564.91;;;0.79;91.69
54994;BME280;40891;47.242;8.648;2022-12-18T09:31:04;97561.03;;;0.80;90.53
54994;BME280;40891;47.242;8.648;2022-12-18T09:33:30;97562.59;;;0.81;90.92
54994;BME280;40891;47.242;8.648;2022-12-18T09:35:55;97563.31;;;0.97;90.13
54994;BME280;40891;47.242;8.648;2022-12-18T09:38:21;97568.81;;;0.78;91.62
54994;BME280;40891;47.242;8.648;2022-12-18T09:40:52;97563.91;;;0.87;90.67
54994;BME280;40891;47.242;8.648;2022-12-18T09:43:22;97559.16;;;0.84;89.19
54994;BME280;40891;47.242;8.648;2022-12-18T09:45:53;97559.72;;;0.93;88.92
54994;BME280;40891;47.242;8.648;2022-12-18T09:48:26;97550.97;;;1.07;89.47
54994;BME280;40891;47.242;8.648;2022-12-18T09:51:03;97561.59;;;0.70;90.35
54994;BME280;40891;47.242;8.648;2022-12-18T09:53:35;97561.59;;;0.70;90.27
54994;BME280;40891;47.242;8.648;2022-12-18T09:56:04;97552.38;;;0.78;89.68
54994;BME280;40891;47.242;8.648;2022-12-18T09:58:46;97557.50;;;0.80;89.37
54994;BME280;40891;47.242;8.648;2022-12-18T10:01:17;97560.72;;;1.04;89.64
54994;BME280;40891;47.242;8.648;2022-12-18T10:03:43;97554.25;;;0.74;90.00
54994;BME280;40891;47.242;8.648;2022-12-18T10:06:23;97555.59;;;1.03;88.98
54994;BME280;40891;47.242;8.648;2022-12-18T10:14:57;97560.84;;;1.11;88.92
54994;BME280;40891;47.242;8.648;2022-12-18T10:17:45;97571.75;;;1.50;85.48
54994;BME280;40891;47.242;8.648;2022-12-18T10:23:18;97570.34;;;1.59;84.52
54994;BME280;40891;47.242;8.648;2022-12-18T10:28:17;97563.97;;;1.10;87.66
54994;BME280;40891;47.242;8.648;2022-12-18T10:30:43;97570.38;;;0.79;89.53
54994;BME280;40891;47.242;8.648;2022-12-18T10:33:13;97568.06;;;0.81;88.83
54994;BME280;40891;47.242;8.648;2022-12-18T10:35:41;97568.06;;;0.81;89.53
54994;BME280;40891;47.242;8.648;2022-12-18T10:40:58;97579.44;;;1.02;89.72
54994;BME280;40891;47.242;8.648;2022-12-18T10:43:29;97572.34;;;1.40;85.99
54994;BME280;40891;47.242;8.648;2022-12-18T10:51:29;97581.47;;;1.24;86.86
54994;BME280;40891;47.242;8.648;2022-12-18T10:54:16;97574.50;;;1.30;87.18
54994;BME280;40891;47.242;8.648;2022-12-18T10:56:42;97571.59;;;1.43;87.27
54994;BME280;40891;47.242;8.648;2022-12-18T10:59:10;97583.56;;;1.54;86.13
54994;BME280;40891;47.242;8.648;2022-12-18T11:01:58;97579.31;;;1.79;84.89
54994;BME280;40891;47.242;8.648;2022-12-18T11:04:24;97590.78;;;1.84;85.29
54994;BME280;40891;47.242;8.648;2022-12-18T11:07:07;97591.78;;;1.76;85.55
54994;BME280;40891;47.242;8.648;2022-12-18T11:09:34;97593.88;;;1.60;85.71
54994;BME280;40891;47.242;8.648;2022-12-18T11:12:03;97590.16;;;1.72;85.38
54994;BME280;40891;47.242;8.648;2022-12-18T11:14:33;97589.16;;;1.83;83.93
54994;BME280;40891;47.242;8.648;2022-12-18T11:17:00;97575.53;;;1.87;84.30
54994;BME280;40891;47.242;8.648;2022-12-18T11:22:02;97571.81;;;1.76;84.82
54994;BME280;40891;47.242;8.648;2022-12-18T11:24:31;97565.38;;;1.65;86.30
54994;BME280;40891;47.242;8.648;2022-12-18T11:26:58;97561.16;;;1.71;85.55
54994;BME280;40891;47.242;8.648;2022-12-18T11:34:44;97538.22;;;2.05;83.49
54994;BME280;40891;47.242;8.648;2022-12-18T11:37:12;97537.63;;;2.19;82.92
54994;BME280;40891;47.242;8.648;2022-12-18T11:39:59;97539.91;;;1.87;85.25
54994;BME280;40891;47.242;8.648;2022-12-18T11:42:52;97530.41;;;2.07;83.18
54994;BME280;40891;47.242;8.648;2022-12-18T11:45:26;97522.69;;;2.16;82.45
54994;BME280;40891;47.242;8.648;2022-12-18T11:48:05;97512.47;;;2.13;84.42
54994;BME280;40891;47.242;8.648;2022-12-18T11:50:57;97517.09;;;2.09;82.66
54994;BME280;40891;47.242;8.648;2022-12-18T11:53:27;97526.91;;;1.84;85.40
54994;BME280;40891;47.242;8.648;2022-12-18T11:58:48;97515.09;;;1.80;84.53
54994;BME280;40891;47.242;8.648;2022-12-18T12:10:09;97533.50;;;1.34;89.32
54994;BME280;40891;47.242;8.648;2022-12-18T12:15:30;97535.69;;;1.48;87.95
54994;BME280;40891;47.242;8.648;2022-12-18T12:18:06;97538.06;;;1.26;88.58
54994;BME280;40891;47.242;8.648;2022-12-18T12:26:11;97522.22;;;1.84;85.15
54994;BME280;40891;47.242;8.648;2022-12-18T12:31:47;97520.69;;;0.96;89.17
54994;BME280;40891;47.242;8.648;2022-12-18T12:34:33;97516.81;;;1.20;88.54
54994;BME280;40891;47.242;8.648;2022-12-18T12:39:44;97507.25;;;1.10;88.86
54994;BME280;40891;47.242;8.648;2022-12-18T12:45:16;97503.22;;;1.04;89.61
54994;BME280;40891;47.242;8.648;2022-12-18T12:47:45;97500.47;;;1.04;91.16
54994;BME280;40891;47.242;8.648;2022-12-18T12:50:18;97500.81;;;0.99;91.11
54994;BME280;40891;47.242;8.648;2022-12-18T12:52:53;97500.19;;;1.09;90.82
54994;BME280;40891;47.242;8.648;2022-12-18T12:55:25;97490.56;;;0.96;92.42
54994;BME280;40891;47.242;8.648;2022-12-18T13:00:57;97488.59;;;1.38;88.14
54994;BME280;40891;47.242;8.648;2022-12-18T13:03:35;97476.66;;;1.27;91.16
54994;BME280;40891;47.242;8.648;2022-12-18T13:06:14;97485.09;;;1.64;88.49
54994;BME280;40891;47.242;8.648;2022-12-18T13:09:11;97471.56;;;1.75;87.21
54994;BME280;40891;47.242;8.648;2022-12-18T13:14:30;97477.44;;;1.51;88.29
54994;BME280;40891;47.242;8.648;2022-12-18T13:19:50;97485.94;;;1.68;87.95
54994;BME280;40891;47.242;8.648;2022-12-18T13:22:56;97489.72;;;1.60;86.84
54994;BME280;40891;47.242;8.648;2022-12-18T13:25:31;97487.00;;;1.86;87.67
54994;BME280;40891;47.242;8.648;2022-12-18T13:28:07;97494.22;;;1.98;86.48
54994;BME280;40891;47.242;8.648;2022-12-18T13:30:41;97495.78;;;1.47;89.00
54994;BME280;40891;47.242;8.648;2022-12-18T13:35:52;97488.88;;;1.33;90.44
54994;BME280;40891;47.242;8.648;2022-12-18T13:38:38;97491.69;;;1.60;88.28
54994;BME280;40891;47.242;8.648;2022-12-18T13:43:42;97497.31;;;1.44;89.05
54994;BME280;40891;47.242;8.648;2022-12-18T13:51:44;97502.06;;;1.73;89.42
54994;BME280;40891;47.242;8.648;2022-12-18T13:54:33;97496.88;;;1.68;89.29
54994;BME280;40891;47.242;8.648;2022-12-18T13:57:00;97498.97;;;1.75;89.42
54994;BME280;40891;47.242;8.648;2022-12-18T13:59:33;97500.22;;;1.81;88.96
54994;BME280;40891;47.242;8.648;2022-12-18T14:02:01;97501.72;;;1.75;88.84
54994;BME280;40891;47.242;8.648;2022-12-18T14:04:32;97504.53;;;1.56;87.46
54994;BME280;40891;47.242;8.648;2022-12-18T14:07:15;97506.66;;;1.43;90.17
54994;BME280;40891;47.242;8.648;2022-12-18T14:09:44;97502.78;;;1.44;90.66
54994;BME280;40891;47.242;8.648;2022-12-18T14:12:21;97493.38;;;1.45;90.47
54994;BME280;40891;47.242;8.648;2022-12-18T14:15:31;97505.78;;;1.16;90.83
54994;BME280;40891;47.242;8.648;2022-12-18T14:17:55;97502.72;;;1.18;92.56
54994;BME280;40891;47.242;8.648;2022-12-18T14:20:22;97503.25;;;1.27;92.93
54994;BME280;40891;47.242;8.648;2022-12-18T14:22:49;97503.75;;;1.32;92.20
54994;BME280;40891;47.242;8.648;2022-12-18T14:25:21;97505.69;;;1.32;91.43
54994;BME280;40891;47.242;8.648;2022-12-18T14:30:38;97522.44;;;1.27;93.29
54994;BME280;40891;47.242;8.648;2022-12-18T14:35:33;97509.16;;;1.06;93.49
54994;BME280;40891;47.242;8.648;2022-12-18T14:39:12;97505.22;;;1.07;94.56
54994;BME280;40891;47.242;8.648;2022-12-18T14:41:18;97507.31;;;1.14;93.82
54994;BME280;40891;47.242;8.648;2022-12-18T14:43:47;97504.50;;;1.10;93.69
54994;BME280;40891;47.242;8.648;2022-12-18T14:48:58;97503.78;;;1.13;92.48
54994;BME280;40891;47.242;8.648;2022-12-18T14:51:32;97497.53;;;1.13;92.83